createdAt,value
2018-06-12T00:00:27.915Z,20.20
2018-06-12T00:02:40.304Z,20.16
2018-06-12T00:04:52.783Z,20.17
2018-06-12T00:07:05.214Z,20.19
2018-06-12T00:09:17.561Z,20.14
2018-06-12T00:11:29.897Z,20.16
2018-06-12T00:13:42.242Z,20.14
2018-06-12T00:15:54.546Z,20.12
2018-06-12T00:18:07.015Z,20.11
2018-06-12T00:20:19.389Z,20.09
2018-06-12T00:22:31.694Z,20.05
2018-06-12T00:24:44.064Z,20.05
2018-06-12T00:26:56.398Z,20.03
2018-06-12T00:29:08.762Z,20.00
2018-06-12T00:31:21.225Z,20.01
2018-06-12T00:33:33.591Z,20.01
2018-06-12T00:35:45.956Z,19.98
2018-06-12T00:37:58.365Z,19.96
2018-06-12T00:40:10.965Z,19.97
2018-06-12T00:42:23.322Z,19.94
2018-06-12T00:44:35.670Z,19.88
2018-06-12T00:46:48.167Z,19.82
2018-06-12T00:49:00.500Z,19.82
2018-06-12T00:51:12.867Z,19.80
2018-06-12T00:53:25.246Z,19.75
2018-06-12T00:55:37.554Z,19.72
2018-06-12T00:57:49.967Z,19.69
2018-06-12T01:00:02.315Z,19.63
2018-06-12T01:02:14.689Z,19.58
2018-06-12T01:04:27.033Z,19.55
2018-06-12T01:06:39.373Z,19.58
2018-06-12T01:08:51.757Z,19.63
2018-06-12T01:11:04.190Z,19.69
2018-06-12T01:13:16.643Z,19.71
2018-06-12T01:15:29.117Z,19.61
2018-06-12T01:17:41.619Z,19.55
2018-06-12T01:19:53.963Z,19.50
2018-06-12T01:22:06.441Z,19.48
2018-06-12T01:24:18.806Z,19.54
2018-06-12T01:26:31.177Z,19.56
2018-06-12T01:28:43.535Z,19.56
2018-06-12T01:30:56.059Z,19.58
2018-06-12T01:33:08.466Z,19.61
2018-06-12T01:35:21.141Z,19.60
2018-06-12T01:37:33.470Z,19.58
2018-06-12T01:39:45.837Z,19.53
2018-06-12T01:41:58.204Z,19.57
2018-06-12T01:44:10.525Z,19.60
2018-06-12T01:46:22.853Z,19.63
2018-06-12T01:48:35.205Z,19.63
2018-06-12T01:50:47.608Z,19.58
2018-06-12T01:52:59.962Z,19.54
2018-06-12T01:55:12.992Z,19.53
2018-06-12T01:57:25.542Z,19.53
2018-06-12T01:59:37.858Z,19.54
2018-06-12T02:01:50.271Z,19.54
2018-06-12T02:04:02.582Z,19.55
2018-06-12T02:06:14.958Z,19.53
2018-06-12T02:08:27.321Z,19.48
2018-06-12T02:10:39.694Z,19.50
2018-06-12T02:12:52.038Z,19.48
2018-06-12T02:15:04.534Z,19.50
2018-06-12T02:17:16.999Z,19.52
2018-06-12T02:19:29.342Z,19.56
2018-06-12T02:21:41.735Z,19.61
2018-06-12T02:23:54.138Z,19.65
2018-06-12T02:26:06.469Z,19.65
2018-06-12T02:28:18.790Z,19.60
2018-06-12T02:30:31.205Z,19.60
2018-06-12T02:32:43.550Z,19.61
2018-06-12T02:34:55.878Z,19.66
2018-06-12T02:37:08.259Z,19.68
2018-06-12T02:39:20.648Z,19.68
2018-06-12T02:41:33.094Z,19.72
2018-06-12T02:43:45.443Z,19.73
2018-06-12T02:45:57.809Z,19.79
2018-06-12T02:48:10.163Z,19.76
2018-06-12T02:50:22.551Z,19.77
2018-06-12T02:52:34.910Z,19.73
2018-06-12T02:54:47.396Z,19.73
2018-06-12T02:56:59.867Z,19.73
2018-06-12T02:59:12.199Z,19.74
2018-06-12T03:01:24.542Z,19.76
2018-06-12T03:03:36.831Z,19.75
2018-06-12T03:05:49.175Z,19.73
2018-06-12T03:08:01.484Z,19.75
2018-06-12T03:10:16.660Z,19.76
2018-06-12T03:12:34.919Z,19.77
2018-06-12T03:14:47.322Z,19.71
2018-06-12T03:16:59.846Z,19.68
2018-06-12T03:19:12.171Z,19.69
2018-06-12T03:21:24.494Z,19.68
2018-06-12T03:23:36.815Z,19.67
2018-06-12T03:25:56.432Z,19.63
2018-06-12T03:28:08.800Z,19.58
2018-06-12T03:30:21.288Z,19.53
2018-06-12T03:32:33.738Z,19.51
2018-06-12T03:34:46.125Z,19.49
2018-06-12T03:36:58.495Z,19.54
2018-06-12T03:39:10.910Z,19.52
2018-06-12T03:41:23.410Z,19.46
2018-06-12T03:43:35.723Z,19.47
2018-06-12T03:45:48.111Z,19.43
2018-06-12T03:48:00.498Z,19.44
2018-06-12T03:50:12.882Z,19.46
2018-06-12T03:52:25.229Z,19.47
2018-06-12T03:54:37.574Z,19.49
2018-06-12T03:56:50.063Z,19.54
2018-06-12T03:59:02.457Z,19.57
2018-06-12T04:01:14.841Z,19.57
2018-06-12T04:03:27.232Z,19.59
2018-06-12T04:05:39.672Z,19.60
2018-06-12T04:07:52.255Z,19.60
2018-06-12T04:10:04.846Z,19.58
2018-06-12T04:12:17.390Z,19.61
2018-06-12T04:14:30.159Z,19.61
2018-06-12T04:16:42.774Z,19.56
2018-06-12T04:18:55.158Z,19.54
2018-06-12T04:21:07.584Z,19.54
2018-06-12T04:23:20.351Z,19.58
2018-06-12T04:25:32.678Z,19.65
2018-06-12T04:27:45.060Z,19.65
2018-06-12T04:29:57.415Z,19.61
2018-06-12T04:32:10.562Z,19.60
2018-06-12T04:34:22.962Z,19.60
2018-06-12T04:36:35.478Z,19.55
2018-06-12T04:38:47.867Z,19.59
2018-06-12T04:41:00.216Z,19.65
2018-06-12T04:43:12.582Z,19.71
2018-06-12T04:45:25.107Z,19.76
2018-06-12T04:47:37.647Z,19.77
2018-06-12T04:49:50.000Z,19.77
2018-06-12T04:52:02.379Z,19.84
2018-06-12T04:54:14.786Z,20.04
2018-06-12T04:56:27.239Z,20.17
2018-06-12T04:58:39.682Z,20.25
2018-06-12T05:00:52.039Z,20.28
2018-06-12T05:03:04.511Z,20.24
2018-06-12T05:05:16.812Z,20.29
2018-06-12T05:07:29.172Z,20.32
2018-06-12T05:09:41.549Z,20.35
2018-06-12T05:11:53.924Z,20.28
2018-06-12T05:14:06.267Z,20.30
2018-06-12T05:16:18.658Z,20.32
2018-06-12T05:18:31.066Z,20.26
2018-06-12T05:20:43.442Z,20.27
2018-06-12T05:22:55.841Z,20.31
2018-06-12T05:25:08.206Z,20.37
2018-06-12T05:27:20.577Z,20.39
2018-06-12T05:29:32.884Z,20.40
2018-06-12T05:31:45.258Z,20.42
2018-06-12T05:33:57.610Z,20.51
2018-06-12T05:36:10.027Z,20.47
2018-06-12T05:38:22.430Z,20.43
2018-06-12T05:40:34.810Z,20.37
2018-06-12T05:42:47.199Z,20.34
2018-06-12T05:44:59.527Z,20.32
2018-06-12T05:47:11.983Z,20.35
2018-06-12T05:49:24.438Z,20.38
2018-06-12T05:51:36.785Z,20.41
2018-06-12T05:53:49.121Z,20.39
2018-06-12T05:56:01.510Z,20.38
2018-06-12T05:58:13.803Z,20.38
2018-06-12T06:00:26.174Z,20.36
2018-06-12T06:02:38.498Z,20.41
2018-06-12T06:04:51.057Z,20.34
2018-06-12T06:07:03.397Z,20.38
2018-06-12T06:09:15.871Z,20.37
2018-06-12T06:11:28.312Z,20.38
2018-06-12T06:13:40.661Z,20.39
2018-06-12T06:15:53.016Z,20.40
2018-06-12T06:18:05.349Z,20.43
2018-06-12T06:20:17.853Z,20.48
2018-06-12T06:22:30.256Z,20.49
2018-06-12T06:24:42.607Z,20.60
2018-06-12T06:26:55.044Z,20.66
2018-06-12T06:29:07.375Z,20.62
2018-06-12T06:31:19.803Z,20.68
2018-06-12T06:33:32.221Z,20.71
2018-06-12T06:35:44.702Z,20.72
2018-06-12T06:37:57.055Z,20.74
2018-06-12T06:40:09.431Z,20.72
2018-06-12T06:42:21.806Z,20.76
2018-06-12T06:44:34.170Z,20.82
2018-06-12T06:46:46.682Z,20.89
2018-06-12T06:48:58.982Z,20.94
2018-06-12T06:51:11.387Z,20.97
2018-06-12T06:53:23.738Z,20.97
2018-06-12T06:55:36.398Z,20.97
2018-06-12T06:57:48.838Z,20.98
2018-06-12T07:00:01.159Z,20.98
2018-06-12T07:02:13.770Z,21.02
2018-06-12T07:04:26.163Z,21.02
2018-06-12T07:06:38.679Z,20.99
2018-06-12T07:08:51.086Z,21.01
2018-06-12T07:11:03.553Z,21.05
2018-06-12T07:13:15.910Z,21.04
2018-06-12T07:15:28.233Z,20.98
2018-06-12T07:17:40.640Z,20.92
2018-06-12T07:19:53.187Z,20.91
2018-06-12T07:22:05.571Z,20.94
2018-06-12T07:24:17.900Z,20.97
2018-06-12T07:26:30.230Z,21.01
2018-06-12T07:28:42.614Z,20.96
2018-06-12T07:30:55.063Z,21.05
2018-06-12T07:33:07.466Z,21.07
2018-06-12T07:35:19.838Z,20.95
2018-06-12T07:37:32.489Z,21.04
2018-06-12T07:39:44.845Z,21.11
2018-06-12T07:41:57.213Z,21.16
2018-06-12T07:44:09.572Z,21.16
2018-06-12T07:46:21.928Z,21.17
2018-06-12T07:48:34.289Z,21.23
2018-06-12T07:50:46.646Z,21.29
2018-06-12T07:52:59.022Z,21.35
2018-06-12T07:55:11.509Z,21.42
2018-06-12T07:57:23.867Z,21.48
2018-06-12T07:59:36.206Z,21.55
2018-06-12T08:01:48.626Z,21.65
2018-06-12T08:04:01.184Z,21.71
2018-06-12T08:06:13.587Z,21.72
2018-06-12T08:08:25.958Z,21.79
2018-06-12T08:10:38.306Z,21.84
2018-06-12T08:12:50.869Z,21.91
2018-06-12T08:15:03.251Z,21.94
2018-06-12T08:17:15.665Z,22.05
2018-06-12T08:19:28.020Z,22.09
2018-06-12T08:21:40.415Z,22.11
2018-06-12T08:23:52.895Z,22.16
2018-06-12T08:26:05.247Z,22.20
2018-06-12T08:28:17.573Z,22.21
2018-06-12T08:30:29.980Z,22.17
2018-06-12T08:32:42.395Z,22.18
2018-06-12T08:34:54.783Z,22.17
2018-06-12T08:37:07.217Z,22.13
2018-06-12T08:39:19.590Z,22.11
2018-06-12T08:41:31.946Z,22.05
2018-06-12T08:43:44.350Z,22.02
2018-06-12T08:45:56.766Z,21.96
2018-06-12T08:48:09.174Z,21.92
2018-06-12T08:50:21.578Z,21.96
2018-06-12T08:52:33.954Z,21.91
2018-06-12T08:54:46.326Z,21.83
2018-06-12T08:56:58.769Z,21.79
2018-06-12T08:59:11.174Z,21.80
2018-06-12T09:01:23.578Z,21.82
2018-06-12T09:03:35.959Z,21.85
2018-06-12T09:05:48.398Z,21.86
2018-06-12T09:08:00.840Z,21.90
2018-06-12T09:10:13.274Z,21.97
2018-06-12T09:12:25.609Z,22.08
2018-06-12T09:14:38.141Z,22.15
2018-06-12T09:16:50.599Z,22.17
2018-06-12T09:19:03.146Z,22.21
2018-06-12T09:21:15.597Z,22.29
2018-06-12T09:23:28.001Z,22.29
2018-06-12T09:25:40.386Z,22.25
2018-06-12T09:27:52.737Z,22.31
2018-06-12T09:30:05.148Z,22.17
2018-06-12T09:32:17.574Z,22.04
2018-06-12T09:34:29.949Z,21.98
2018-06-12T09:36:42.357Z,21.95
2018-06-12T09:38:54.933Z,21.95
2018-06-12T09:41:07.370Z,21.96
2018-06-12T09:43:19.764Z,21.95
2018-06-12T09:45:32.166Z,22.04
2018-06-12T09:47:44.553Z,22.04
2018-06-12T09:49:57.106Z,22.02
2018-06-12T09:52:09.503Z,22.05
2018-06-12T09:54:21.933Z,22.15
2018-06-12T09:56:34.368Z,22.17
2018-06-12T09:58:46.764Z,22.20
2018-06-12T10:01:05.004Z,22.19
2018-06-12T10:03:17.493Z,22.32
2018-06-12T10:05:29.876Z,22.80
2018-06-12T10:07:42.287Z,23.14
2018-06-12T10:09:54.843Z,23.30
2018-06-12T10:12:07.527Z,23.34
2018-06-12T10:14:19.921Z,23.38
2018-06-12T10:16:32.334Z,23.45
2018-06-12T10:18:44.794Z,23.69
2018-06-12T10:20:57.096Z,23.87
2018-06-12T10:23:09.472Z,23.97
2018-06-12T10:25:21.843Z,23.98
2018-06-12T10:27:35.011Z,24.04
2018-06-12T10:29:47.427Z,24.03
2018-06-12T10:31:59.860Z,23.97
2018-06-12T10:34:12.195Z,24.01
2018-06-12T10:36:24.579Z,23.99
2018-06-12T10:38:36.985Z,24.28
2018-06-12T10:40:49.403Z,24.45
2018-06-12T10:43:01.814Z,24.60
2018-06-12T10:45:14.157Z,24.87
2018-06-12T10:47:26.552Z,25.13
2018-06-12T10:49:38.892Z,25.27
2018-06-12T10:51:51.306Z,25.45
2018-06-12T10:54:03.617Z,25.47
2018-06-12T10:56:15.994Z,25.23
2018-06-12T10:58:28.390Z,25.04
2018-06-12T11:00:40.882Z,25.15
2018-06-12T11:02:53.293Z,25.19
2018-06-12T11:05:05.741Z,25.20
2018-06-12T11:07:18.250Z,25.07
2018-06-12T11:09:30.708Z,25.01
2018-06-12T11:11:43.050Z,24.85
2018-06-12T11:13:55.539Z,24.78
2018-06-12T11:16:07.951Z,24.70
2018-06-12T11:18:20.338Z,24.55
2018-06-12T11:20:32.716Z,24.52
2018-06-12T11:22:45.174Z,24.54
2018-06-12T11:24:57.649Z,24.60
2018-06-12T11:27:10.003Z,24.48
2018-06-12T11:29:22.402Z,24.21
2018-06-12T11:31:34.838Z,24.11
2018-06-12T11:33:47.303Z,23.88
2018-06-12T11:35:59.773Z,23.79
2018-06-12T11:38:12.169Z,23.65
2018-06-12T11:40:24.534Z,23.37
2018-06-12T11:42:36.934Z,23.23
2018-06-12T11:44:49.279Z,22.99
2018-06-12T11:47:01.763Z,22.75
2018-06-12T11:49:14.149Z,22.50
2018-06-12T11:51:26.591Z,22.35
2018-06-12T11:53:39.109Z,22.23
2018-06-12T11:55:51.562Z,22.10
2018-06-12T11:58:04.090Z,21.96
2018-06-12T12:00:16.479Z,21.81
2018-06-12T12:02:28.916Z,21.65
2018-06-12T12:04:41.320Z,21.48
2018-06-12T12:06:53.828Z,21.33
2018-06-12T12:09:07.898Z,21.25
2018-06-12T12:11:20.367Z,21.14
2018-06-12T12:13:32.729Z,21.09
2018-06-12T12:15:45.150Z,21.07
2018-06-12T12:17:57.535Z,21.02
2018-06-12T12:20:10.049Z,20.92
2018-06-12T12:22:22.387Z,20.80
2018-06-12T12:24:34.849Z,20.61
2018-06-12T12:26:47.215Z,20.47
2018-06-12T12:28:59.603Z,20.45
2018-06-12T12:31:12.030Z,20.40
2018-06-12T12:33:24.386Z,20.29
2018-06-12T12:35:36.741Z,20.25
2018-06-12T12:37:49.100Z,20.23
2018-06-12T12:40:01.662Z,20.23
2018-06-12T12:42:13.939Z,20.21
2018-06-12T12:44:26.335Z,20.16
2018-06-12T12:46:38.769Z,20.19
2018-06-12T12:48:51.111Z,20.23
2018-06-12T12:51:03.526Z,20.22
2018-06-12T12:53:16.010Z,20.24
2018-06-12T12:55:28.372Z,20.28
2018-06-12T12:57:40.719Z,20.32
2018-06-12T12:59:53.130Z,20.32
2018-06-12T13:02:05.794Z,20.32
2018-06-12T13:04:18.142Z,20.29
2018-06-12T13:06:30.522Z,20.26
2018-06-12T13:08:42.855Z,20.22
2018-06-12T13:10:55.267Z,20.20
2018-06-12T13:13:07.683Z,20.25
2018-06-12T13:15:20.041Z,20.30
2018-06-12T13:17:32.390Z,20.31
2018-06-12T13:19:44.687Z,20.31
2018-06-12T13:21:57.065Z,20.22
2018-06-12T13:24:09.542Z,20.26
2018-06-12T13:26:21.965Z,20.27
2018-06-12T13:28:34.405Z,20.25
2018-06-12T13:30:46.845Z,20.23
2018-06-12T13:32:59.290Z,20.22
2018-06-12T13:35:11.707Z,20.15
2018-06-12T13:37:24.089Z,20.16
2018-06-12T13:39:36.411Z,20.15
2018-06-12T13:41:48.823Z,20.16
2018-06-12T13:44:01.206Z,20.23
2018-06-12T13:46:13.549Z,20.17
2018-06-12T13:48:25.933Z,20.10
2018-06-12T13:50:38.285Z,20.09
2018-06-12T13:52:50.665Z,20.08
2018-06-12T13:55:03.074Z,20.04
2018-06-12T13:57:15.421Z,20.08
2018-06-12T13:59:27.913Z,20.06
2018-06-12T14:01:40.281Z,20.08
2018-06-12T14:03:52.716Z,20.09
2018-06-12T14:06:05.158Z,20.08
2018-06-12T14:08:17.613Z,20.12
2018-06-12T14:10:30.074Z,20.19
2018-06-12T14:12:42.398Z,20.26
2018-06-12T14:14:54.737Z,20.34
2018-06-12T14:17:07.186Z,20.51
2018-06-12T14:19:19.659Z,20.65
2018-06-12T14:21:32.254Z,20.70
2018-06-12T14:23:44.667Z,20.85
2018-06-12T14:25:57.044Z,20.96
2018-06-12T14:28:09.449Z,21.05
2018-06-12T14:30:21.826Z,21.03
2018-06-12T14:32:34.183Z,21.01
2018-06-12T14:34:46.590Z,20.96
2018-06-12T14:36:58.949Z,20.94
2018-06-12T14:39:11.264Z,20.90
2018-06-12T14:41:23.690Z,20.90
2018-06-12T14:43:36.012Z,20.92
2018-06-12T14:45:48.372Z,20.97
2018-06-12T14:48:00.745Z,20.98
2018-06-12T14:50:13.110Z,21.00
2018-06-12T14:52:25.538Z,21.05
2018-06-12T14:54:37.961Z,21.08
2018-06-12T14:56:50.314Z,21.17
2018-06-12T14:59:02.686Z,21.09
2018-06-12T15:01:15.220Z,21.10
2018-06-12T15:03:27.634Z,21.23
2018-06-12T15:05:40.146Z,21.43
2018-06-12T15:07:52.512Z,21.59
2018-06-12T15:10:05.064Z,21.66
2018-06-12T15:12:17.466Z,21.69
2018-06-12T15:14:29.856Z,21.62
2018-06-12T15:16:42.162Z,21.58
2018-06-12T15:18:54.528Z,21.50
2018-06-12T15:21:06.915Z,21.45
2018-06-12T15:23:19.397Z,21.35
2018-06-12T15:25:31.822Z,21.38
2018-06-12T15:27:44.207Z,21.38
2018-06-12T15:29:56.611Z,21.44
2018-06-12T15:32:08.930Z,21.56
2018-06-12T15:34:21.361Z,21.54
2018-06-12T15:36:33.701Z,21.51
2018-06-12T15:38:46.059Z,21.55
2018-06-12T15:40:58.459Z,21.56
2018-06-12T15:43:10.763Z,21.48
2018-06-12T15:45:23.164Z,21.40
2018-06-12T15:47:35.640Z,21.35
2018-06-12T15:49:48.100Z,21.30
2018-06-12T15:52:00.542Z,21.29
2018-06-12T15:54:12.961Z,21.38
2018-06-12T15:56:25.330Z,21.44
2018-06-12T15:58:37.715Z,21.51
2018-06-12T16:00:50.304Z,21.64
2018-06-12T16:03:02.670Z,21.72
2018-06-12T16:05:15.229Z,21.74
2018-06-12T16:07:27.706Z,21.80
2018-06-12T16:09:40.103Z,21.79
2018-06-12T16:11:52.533Z,21.78
2018-06-12T16:14:04.865Z,21.75
2018-06-12T16:16:17.427Z,21.76
2018-06-12T16:18:29.778Z,21.75
2018-06-12T16:20:42.217Z,21.78
2018-06-12T16:22:54.742Z,21.82
2018-06-12T16:25:07.064Z,21.78
2018-06-12T16:27:20.086Z,21.79
2018-06-12T16:29:32.650Z,21.69
2018-06-12T16:31:45.007Z,21.70
2018-06-12T16:33:57.450Z,21.67
2018-06-12T16:36:09.929Z,21.57
2018-06-12T16:38:22.346Z,21.52
2018-06-12T16:40:34.740Z,21.53
2018-06-12T16:42:47.154Z,21.49
2018-06-12T16:44:59.505Z,21.50
2018-06-12T16:47:11.875Z,21.52
2018-06-12T16:49:24.346Z,21.57
2018-06-12T16:51:36.735Z,21.55
2018-06-12T16:53:49.124Z,21.60
2018-06-12T16:56:01.640Z,21.49
2018-06-12T16:58:14.043Z,21.48
2018-06-12T17:00:26.672Z,21.49
2018-06-12T17:02:39.078Z,21.42
2018-06-12T17:04:51.544Z,21.38
2018-06-12T17:07:04.189Z,21.40
2018-06-12T17:09:16.676Z,21.43
2018-06-12T17:11:29.133Z,21.40
2018-06-12T17:13:41.704Z,21.39
2018-06-12T17:15:54.189Z,21.38
2018-06-12T17:18:06.792Z,21.40
2018-06-12T17:20:19.280Z,21.38
2018-06-12T17:22:31.784Z,21.26
2018-06-12T17:24:44.254Z,21.22
2018-06-12T17:26:56.719Z,21.16
2018-06-12T17:29:09.180Z,21.13
2018-06-12T17:31:21.577Z,21.12
2018-06-12T17:33:34.097Z,21.06
2018-06-12T17:35:46.588Z,21.03
2018-06-12T17:37:58.983Z,20.99
2018-06-12T17:40:11.455Z,20.94
2018-06-12T17:42:23.888Z,20.93
2018-06-12T17:44:36.520Z,20.83
2018-06-12T17:46:49.090Z,20.79
2018-06-12T17:49:01.516Z,20.74
2018-06-12T17:51:13.935Z,20.75
2018-06-12T17:53:26.419Z,20.65
2018-06-12T17:55:38.797Z,20.61
2018-06-12T17:57:51.131Z,20.57
2018-06-12T18:00:03.658Z,20.53
2018-06-12T18:02:16.249Z,20.47
2018-06-12T18:04:28.896Z,20.45
2018-06-12T18:06:41.330Z,20.38
2018-06-12T18:08:53.842Z,20.32
2018-06-12T18:11:06.179Z,20.33
2018-06-12T18:13:18.571Z,20.33
2018-06-12T18:15:31.068Z,20.30
2018-06-12T18:17:43.615Z,20.33
2018-06-12T18:20:01.439Z,20.29
2018-06-12T18:22:13.990Z,20.23
2018-06-12T18:24:26.455Z,20.34
2018-06-12T18:26:38.813Z,20.37
2018-06-12T18:28:51.293Z,20.32
2018-06-12T18:31:05.252Z,20.29
2018-06-12T18:33:17.766Z,20.29
2018-06-12T18:35:30.388Z,20.31
2018-06-12T18:37:42.883Z,20.16
2018-06-12T18:39:55.390Z,20.08
2018-06-12T18:42:07.996Z,20.09
2018-06-12T18:44:20.451Z,20.08
2018-06-12T18:46:32.940Z,20.08
2018-06-12T18:48:45.439Z,20.05
2018-06-12T18:50:57.882Z,20.01
2018-06-12T18:53:10.339Z,19.91
2018-06-12T18:55:22.838Z,19.88
2018-06-12T18:57:35.289Z,19.87
2018-06-12T18:59:47.850Z,19.83
2018-06-12T19:02:00.268Z,19.81
2018-06-12T19:04:12.702Z,19.72
2018-06-12T19:06:25.160Z,19.71
2018-06-12T19:08:37.579Z,19.67
2018-06-12T19:10:50.020Z,19.60
2018-06-12T19:13:02.399Z,19.62
2018-06-12T19:15:14.821Z,19.58
2018-06-12T19:17:27.190Z,19.51
2018-06-12T19:19:39.653Z,19.49
2018-06-12T19:21:52.053Z,19.42
2018-06-12T19:24:04.782Z,19.39
2018-06-12T19:26:17.174Z,19.39
2018-06-12T19:28:29.578Z,19.36
2018-06-12T19:30:42.019Z,19.34
2018-06-12T19:32:54.478Z,19.34
2018-06-12T19:35:06.926Z,19.32
2018-06-12T19:37:19.318Z,19.27
2018-06-12T19:39:31.770Z,19.27
2018-06-12T19:41:44.153Z,19.23
2018-06-12T19:43:56.611Z,19.21
2018-06-12T19:46:08.987Z,19.18
2018-06-12T19:48:21.395Z,19.15
2018-06-12T19:50:33.903Z,19.12
2018-06-12T19:52:46.358Z,19.08
2018-06-12T19:54:58.798Z,19.10
2018-06-12T19:57:11.229Z,19.13
2018-06-12T19:59:23.613Z,19.11
2018-06-12T20:01:36.077Z,19.10
2018-06-12T20:03:48.575Z,19.09
2018-06-12T20:06:01.022Z,19.08
2018-06-12T20:08:13.475Z,19.09
2018-06-12T20:10:25.942Z,19.03
2018-06-12T20:12:38.378Z,19.04
2018-06-12T20:14:50.837Z,18.98
2018-06-12T20:17:03.294Z,18.99
2018-06-12T20:19:15.710Z,18.94
2018-06-12T20:21:28.121Z,18.86
2018-06-12T20:23:40.661Z,18.89
2018-06-12T20:25:53.270Z,18.85
2018-06-12T20:28:05.679Z,18.84
2018-06-12T20:30:18.131Z,18.77
2018-06-12T20:32:30.658Z,18.75
2018-06-12T20:34:43.103Z,18.71
2018-06-12T20:36:55.582Z,18.74
2018-06-12T20:39:08.306Z,18.70
2018-06-12T20:41:20.698Z,18.68
2018-06-12T20:43:33.212Z,18.64
2018-06-12T20:45:45.693Z,18.63
2018-06-12T20:47:58.147Z,18.66
2018-06-12T20:50:10.625Z,18.63
2018-06-12T20:52:23.030Z,18.66
2018-06-12T20:54:35.658Z,18.65
2018-06-12T20:56:48.084Z,18.65
2018-06-12T20:59:00.534Z,18.67
2018-06-12T21:01:12.955Z,18.69
2018-06-12T21:03:25.339Z,18.67
2018-06-12T21:05:37.969Z,18.65
2018-06-12T21:07:50.371Z,18.65
2018-06-12T21:10:02.855Z,18.63
2018-06-12T21:12:15.310Z,18.62
2018-06-12T21:14:27.722Z,18.58
2018-06-12T21:16:40.085Z,18.59
2018-06-12T21:18:52.484Z,18.51
2018-06-12T21:21:04.890Z,18.45
2018-06-12T21:23:17.238Z,18.38
2018-06-12T21:25:29.738Z,18.37
2018-06-12T21:27:42.174Z,18.32
2018-06-12T21:29:54.542Z,18.34
2018-06-12T21:32:06.948Z,18.32
2018-06-12T21:34:19.309Z,18.27
2018-06-12T21:36:31.737Z,18.21
2018-06-12T21:38:45.819Z,18.21
2018-06-12T21:40:58.429Z,18.14
2018-06-12T21:43:10.824Z,18.11
2018-06-12T21:45:23.134Z,18.08
2018-06-12T21:47:35.513Z,17.99
2018-06-12T21:49:47.869Z,17.98
2018-06-12T21:52:00.298Z,17.96
2018-06-12T21:54:12.676Z,17.94
2018-06-12T21:56:25.019Z,17.92
2018-06-12T21:58:37.427Z,17.89
2018-06-12T22:00:50.004Z,17.88
2018-06-12T22:03:02.426Z,17.88
2018-06-12T22:05:14.833Z,17.86
2018-06-12T22:07:27.190Z,17.87
2018-06-12T22:09:39.598Z,17.90
2018-06-12T22:11:52.383Z,17.90
2018-06-12T22:14:04.837Z,17.84
2018-06-12T22:16:21.227Z,17.79
2018-06-12T22:18:33.694Z,17.76
2018-06-12T22:20:46.119Z,17.73
2018-06-12T22:22:58.518Z,17.69
2018-06-12T22:25:10.932Z,17.69
2018-06-12T22:27:23.426Z,17.68
2018-06-12T22:29:35.953Z,17.64
2018-06-12T22:31:48.353Z,17.60
2018-06-12T22:34:00.806Z,17.56
2018-06-12T22:36:13.118Z,17.51
2018-06-12T22:38:25.482Z,17.52
2018-06-12T22:40:37.906Z,17.46
2018-06-12T22:42:50.263Z,17.40
2018-06-12T22:45:02.734Z,17.38
2018-06-12T22:47:15.157Z,17.34
2018-06-12T22:49:27.541Z,17.35
2018-06-12T22:51:39.946Z,17.33
2018-06-12T22:53:52.386Z,17.31
2018-06-12T22:56:04.848Z,17.31
2018-06-12T22:58:17.181Z,17.31
2018-06-12T23:00:29.530Z,17.26
2018-06-12T23:02:41.862Z,17.23
2018-06-12T23:04:54.233Z,17.18
2018-06-12T23:07:06.646Z,17.16
2018-06-12T23:09:19.015Z,17.20
2018-06-12T23:11:31.410Z,17.15
2018-06-12T23:13:43.861Z,17.14
2018-06-12T23:15:56.202Z,17.12
2018-06-12T23:18:08.578Z,17.14
2018-06-12T23:20:32.422Z,17.13
2018-06-12T23:22:44.776Z,17.11
2018-06-12T23:24:57.150Z,17.16
2018-06-12T23:27:09.738Z,17.15
2018-06-12T23:29:22.045Z,17.13
2018-06-12T23:31:34.382Z,17.12
2018-06-12T23:33:46.864Z,17.13
2018-06-12T23:35:59.275Z,17.13
2018-06-12T23:38:11.683Z,17.16
2018-06-12T23:40:24.076Z,17.16
2018-06-12T23:42:36.464Z,17.20
2018-06-12T23:44:48.849Z,17.16
2018-06-12T23:47:01.170Z,17.16
2018-06-12T23:49:13.511Z,17.18
2018-06-12T23:51:25.890Z,17.21
2018-06-12T23:53:38.271Z,17.19
2018-06-12T23:55:50.798Z,17.15
2018-06-12T23:58:03.186Z,17.15
